sensor_id;sensor_type;location;lat;lon;timestamp;P1;durP1;ratioP1;P2;durP2;ratioP2
75737;SDS011;64356;45.638;13.764;2023-02-21T00:01:54;28.23;;;19.73;;
75737;SDS011;64356;45.638;13.764;2023-02-21T00:04:39;32.45;;;19.05;;
75737;SDS011;64356;45.638;13.764;2023-02-21T00:07:23;26.00;;;18.20;;
75737;SDS011;64356;45.638;13.764;2023-02-21T00:10:10;28.20;;;19.67;;
75737;SDS011;64356;45.638;13.764;2023-02-21T00:12:56;24.13;;;19.63;;
75737;SDS011;64356;45.638;13.764;2023-02-21T00:15:40;24.05;;;18.80;;
75737;SDS011;64356;45.638;13.764;2023-02-21T00:18:24;24.10;;;17.65;;
75737;SDS011;64356;45.638;13.764;2023-02-21T00:21:08;22.10;;;18.35;;
75737;SDS011;64356;45.638;13.764;2023-02-21T00:23:52;31.15;;;19.45;;
75737;SDS011;64356;45.638;13.764;2023-02-21T00:26:36;26.60;;;19.77;;
75737;SDS011;64356;45.638;13.764;2023-02-21T00:29:20;24.23;;;18.05;;
75737;SDS011;64356;45.638;13.764;2023-02-21T00:32:04;24.63;;;18.85;;
75737;SDS011;64356;45.638;13.764;2023-02-21T00:34:49;30.27;;;19.58;;
75737;SDS011;64356;45.638;13.764;2023-02-21T00:37:33;24.75;;;19.10;;
75737;SDS011;64356;45.638;13.764;2023-02-21T00:40:17;25.02;;;18.77;;
75737;SDS011;64356;45.638;13.764;2023-02-21T00:43:01;27.40;;;18.52;;
75737;SDS011;64356;45.638;13.764;2023-02-21T00:45:45;24.27;;;18.30;;
75737;SDS011;64356;45.638;13.764;2023-02-21T00:48:30;27.85;;;18.98;;
75737;SDS011;64356;45.638;13.764;2023-02-21T00:51:14;27.92;;;18.02;;
75737;SDS011;64356;45.638;13.764;2023-02-21T00:53:59;27.90;;;18.92;;
75737;SDS011;64356;45.638;13.764;2023-02-21T00:56:43;30.88;;;18.73;;
75737;SDS011;64356;45.638;13.764;2023-02-21T00:59:27;23.98;;;18.77;;
75737;SDS011;64356;45.638;13.764;2023-02-21T01:02:12;26.13;;;18.25;;
75737;SDS011;64356;45.638;13.764;2023-02-21T01:04:57;24.95;;;18.55;;
75737;SDS011;64356;45.638;13.764;2023-02-21T01:07:41;23.38;;;19.00;;
75737;SDS011;64356;45.638;13.764;2023-02-21T01:10:26;23.20;;;18.08;;
75737;SDS011;64356;45.638;13.764;2023-02-21T01:13:10;22.88;;;17.95;;
75737;SDS011;64356;45.638;13.764;2023-02-21T01:15:54;27.70;;;19.38;;
75737;SDS011;64356;45.638;13.764;2023-02-21T01:18:39;23.63;;;18.48;;
75737;SDS011;64356;45.638;13.764;2023-02-21T01:21:23;27.10;;;18.63;;
75737;SDS011;64356;45.638;13.764;2023-02-21T01:24:08;31.15;;;19.90;;
75737;SDS011;64356;45.638;13.764;2023-02-21T01:26:57;27.13;;;18.60;;
75737;SDS011;64356;45.638;13.764;2023-02-21T01:29:41;22.92;;;18.35;;
75737;SDS011;64356;45.638;13.764;2023-02-21T01:32:25;23.92;;;18.95;;
75737;SDS011;64356;45.638;13.764;2023-02-21T01:35:09;24.52;;;18.77;;
75737;SDS011;64356;45.638;13.764;2023-02-21T01:37:53;25.52;;;18.52;;
75737;SDS011;64356;45.638;13.764;2023-02-21T01:40:37;33.47;;;19.40;;
75737;SDS011;64356;45.638;13.764;2023-02-21T01:43:23;25.92;;;18.33;;
75737;SDS011;64356;45.638;13.764;2023-02-21T01:46:09;25.05;;;18.10;;
75737;SDS011;64356;45.638;13.764;2023-02-21T01:48:56;26.35;;;18.38;;
75737;SDS011;64356;45.638;13.764;2023-02-21T01:51:43;24.95;;;17.92;;
75737;SDS011;64356;45.638;13.764;2023-02-21T01:54:29;29.02;;;19.23;;
75737;SDS011;64356;45.638;13.764;2023-02-21T01:57:16;25.80;;;18.35;;
75737;SDS011;64356;45.638;13.764;2023-02-21T02:00:03;21.98;;;17.90;;
75737;SDS011;64356;45.638;13.764;2023-02-21T02:05:53;21.58;;;16.83;;
75737;SDS011;64356;45.638;13.764;2023-02-21T02:08:39;21.70;;;16.52;;
75737;SDS011;64356;45.638;13.764;2023-02-21T02:36:29;25.08;;;18.63;;
75737;SDS011;64356;45.638;13.764;2023-02-21T02:39:13;23.88;;;17.17;;
75737;SDS011;64356;45.638;13.764;2023-02-21T02:41:52;25.88;;;18.35;;
75737;SDS011;64356;45.638;13.764;2023-02-21T02:44:30;22.55;;;17.08;;
75737;SDS011;64356;45.638;13.764;2023-02-21T02:47:07;22.88;;;18.25;;
75737;SDS011;64356;45.638;13.764;2023-02-21T02:49:40;25.23;;;18.52;;
75737;SDS011;64356;45.638;13.764;2023-02-21T02:52:08;23.58;;;17.80;;
75737;SDS011;64356;45.638;13.764;2023-02-21T02:54:34;24.92;;;17.25;;
75737;SDS011;64356;45.638;13.764;2023-02-21T02:57:01;22.05;;;18.10;;
75737;SDS011;64356;45.638;13.764;2023-02-21T02:59:34;23.52;;;18.50;;
75737;SDS011;64356;45.638;13.764;2023-02-21T03:06:00;24.25;;;17.20;;
75737;SDS011;64356;45.638;13.764;2023-02-21T03:07:58;20.70;;;17.00;;
75737;SDS011;64356;45.638;13.764;2023-02-21T03:10:44;22.05;;;17.00;;
75737;SDS011;64356;45.638;13.764;2023-02-21T03:18:28;22.40;;;17.45;;
75737;SDS011;64356;45.638;13.764;2023-02-21T03:21:11;24.05;;;17.80;;
75737;SDS011;64356;45.638;13.764;2023-02-21T03:23:40;22.73;;;17.73;;
75737;SDS011;64356;45.638;13.764;2023-02-21T03:26:08;20.92;;;17.55;;
75737;SDS011;64356;45.638;13.764;2023-02-21T03:28:35;23.38;;;17.88;;
75737;SDS011;64356;45.638;13.764;2023-02-21T03:31:02;22.77;;;17.17;;
75737;SDS011;64356;45.638;13.764;2023-02-21T03:33:31;25.23;;;18.38;;
75737;SDS011;64356;45.638;13.764;2023-02-21T03:35:58;21.92;;;17.83;;
75737;SDS011;64356;45.638;13.764;2023-02-21T03:38:28;22.75;;;17.65;;
75737;SDS011;64356;45.638;13.764;2023-02-21T03:40:55;22.70;;;17.92;;
75737;SDS011;64356;45.638;13.764;2023-02-21T03:43:21;23.30;;;18.13;;
75737;SDS011;64356;45.638;13.764;2023-02-21T03:45:47;23.27;;;17.58;;
75737;SDS011;64356;45.638;13.764;2023-02-21T03:48:13;23.02;;;17.10;;
75737;SDS011;64356;45.638;13.764;2023-02-21T03:50:39;23.45;;;17.35;;
75737;SDS011;64356;45.638;13.764;2023-02-21T03:53:04;21.42;;;17.23;;
75737;SDS011;64356;45.638;13.764;2023-02-21T03:55:30;24.65;;;17.98;;
75737;SDS011;64356;45.638;13.764;2023-02-21T03:57:56;24.92;;;17.90;;
75737;SDS011;64356;45.638;13.764;2023-02-21T04:00:21;21.90;;;17.17;;
75737;SDS011;64356;45.638;13.764;2023-02-21T04:02:47;26.52;;;17.88;;
75737;SDS011;64356;45.638;13.764;2023-02-21T04:05:13;22.27;;;16.90;;
75737;SDS011;64356;45.638;13.764;2023-02-21T04:07:39;23.27;;;18.52;;
75737;SDS011;64356;45.638;13.764;2023-02-21T04:10:04;24.65;;;18.15;;
75737;SDS011;64356;45.638;13.764;2023-02-21T04:12:30;26.23;;;17.35;;
75737;SDS011;64356;45.638;13.764;2023-02-21T04:14:56;24.95;;;17.40;;
75737;SDS011;64356;45.638;13.764;2023-02-21T04:17:22;23.92;;;19.00;;
75737;SDS011;64356;45.638;13.764;2023-02-21T04:19:49;24.98;;;17.65;;
75737;SDS011;64356;45.638;13.764;2023-02-21T04:22:15;23.05;;;18.40;;
75737;SDS011;64356;45.638;13.764;2023-02-21T04:24:41;25.77;;;17.58;;
75737;SDS011;64356;45.638;13.764;2023-02-21T04:27:07;23.75;;;18.30;;
75737;SDS011;64356;45.638;13.764;2023-02-21T04:29:33;25.58;;;18.83;;
75737;SDS011;64356;45.638;13.764;2023-02-21T04:31:58;25.30;;;18.40;;
75737;SDS011;64356;45.638;13.764;2023-02-21T04:34:24;24.90;;;17.80;;
75737;SDS011;64356;45.638;13.764;2023-02-21T04:36:50;23.88;;;18.80;;
75737;SDS011;64356;45.638;13.764;2023-02-21T04:39:16;24.58;;;17.13;;
75737;SDS011;64356;45.638;13.764;2023-02-21T04:41:41;24.17;;;18.65;;
75737;SDS011;64356;45.638;13.764;2023-02-21T04:44:07;23.75;;;17.35;;
75737;SDS011;64356;45.638;13.764;2023-02-21T04:46:34;23.90;;;18.15;;
75737;SDS011;64356;45.638;13.764;2023-02-21T04:48:59;22.65;;;17.45;;
75737;SDS011;64356;45.638;13.764;2023-02-21T04:51:25;22.67;;;18.35;;
75737;SDS011;64356;45.638;13.764;2023-02-21T04:53:51;22.33;;;18.02;;
75737;SDS011;64356;45.638;13.764;2023-02-21T04:56:19;22.30;;;18.70;;
75737;SDS011;64356;45.638;13.764;2023-02-21T04:58:46;25.90;;;18.23;;
75737;SDS011;64356;45.638;13.764;2023-02-21T05:01:12;26.08;;;19.55;;
75737;SDS011;64356;45.638;13.764;2023-02-21T05:06:08;26.45;;;19.83;;
75737;SDS011;64356;45.638;13.764;2023-02-21T05:08:34;24.17;;;18.90;;
75737;SDS011;64356;45.638;13.764;2023-02-21T05:11:01;25.85;;;18.73;;
75737;SDS011;64356;45.638;13.764;2023-02-21T05:13:27;23.30;;;18.95;;
75737;SDS011;64356;45.638;13.764;2023-02-21T05:15:53;24.85;;;19.48;;
75737;SDS011;64356;45.638;13.764;2023-02-21T05:18:18;26.00;;;19.67;;
75737;SDS011;64356;45.638;13.764;2023-02-21T05:20:50;23.77;;;19.73;;
75737;SDS011;64356;45.638;13.764;2023-02-21T05:23:16;27.08;;;19.60;;
75737;SDS011;64356;45.638;13.764;2023-02-21T05:25:53;28.17;;;19.27;;
75737;SDS011;64356;45.638;13.764;2023-02-21T05:28:19;27.25;;;19.13;;
75737;SDS011;64356;45.638;13.764;2023-02-21T05:30:44;24.88;;;19.15;;
75737;SDS011;64356;45.638;13.764;2023-02-21T05:33:10;25.15;;;19.38;;
75737;SDS011;64356;45.638;13.764;2023-02-21T05:35:36;23.13;;;18.80;;
75737;SDS011;64356;45.638;13.764;2023-02-21T05:38:02;25.35;;;19.00;;
75737;SDS011;64356;45.638;13.764;2023-02-21T05:40:27;25.30;;;18.73;;
75737;SDS011;64356;45.638;13.764;2023-02-21T05:42:53;24.70;;;18.67;;
75737;SDS011;64356;45.638;13.764;2023-02-21T05:45:19;26.80;;;18.08;;
75737;SDS011;64356;45.638;13.764;2023-02-21T05:47:44;22.33;;;18.33;;
75737;SDS011;64356;45.638;13.764;2023-02-21T05:50:10;25.55;;;18.48;;
75737;SDS011;64356;45.638;13.764;2023-02-21T05:52:36;22.02;;;17.13;;
75737;SDS011;64356;45.638;13.764;2023-02-21T05:55:01;23.55;;;17.35;;
75737;SDS011;64356;45.638;13.764;2023-02-21T05:57:27;22.58;;;18.65;;
75737;SDS011;64356;45.638;13.764;2023-02-21T05:59:53;22.65;;;18.08;;
75737;SDS011;64356;45.638;13.764;2023-02-21T06:02:18;23.55;;;18.27;;
75737;SDS011;64356;45.638;13.764;2023-02-21T06:04:44;21.90;;;17.20;;
75737;SDS011;64356;45.638;13.764;2023-02-21T06:07:10;22.63;;;16.80;;
75737;SDS011;64356;45.638;13.764;2023-02-21T06:09:35;23.10;;;18.55;;
75737;SDS011;64356;45.638;13.764;2023-02-21T06:12:01;22.30;;;18.00;;
75737;SDS011;64356;45.638;13.764;2023-02-21T06:14:27;23.50;;;17.60;;
75737;SDS011;64356;45.638;13.764;2023-02-21T06:16:53;23.10;;;16.80;;
75737;SDS011;64356;45.638;13.764;2023-02-21T06:19:18;29.98;;;18.25;;
75737;SDS011;64356;45.638;13.764;2023-02-21T06:21:44;19.90;;;16.83;;
75737;SDS011;64356;45.638;13.764;2023-02-21T06:24:10;22.63;;;17.73;;
75737;SDS011;64356;45.638;13.764;2023-02-21T06:26:37;19.60;;;16.33;;
75737;SDS011;64356;45.638;13.764;2023-02-21T06:29:05;21.40;;;16.38;;
75737;SDS011;64356;45.638;13.764;2023-02-21T06:31:31;22.27;;;16.20;;
75737;SDS011;64356;45.638;13.764;2023-02-21T06:33:56;20.98;;;16.40;;
75737;SDS011;64356;45.638;13.764;2023-02-21T06:36:24;20.25;;;16.25;;
75737;SDS011;64356;45.638;13.764;2023-02-21T06:38:53;25.38;;;18.08;;
75737;SDS011;64356;45.638;13.764;2023-02-21T06:41:22;27.25;;;18.20;;
75737;SDS011;64356;45.638;13.764;2023-02-21T06:43:50;26.02;;;17.00;;
75737;SDS011;64356;45.638;13.764;2023-02-21T06:46:18;22.75;;;17.50;;
75737;SDS011;64356;45.638;13.764;2023-02-21T06:48:45;22.60;;;16.48;;
75737;SDS011;64356;45.638;13.764;2023-02-21T06:51:11;30.77;;;17.95;;
75737;SDS011;64356;45.638;13.764;2023-02-21T06:53:38;21.45;;;16.98;;
75737;SDS011;64356;45.638;13.764;2023-02-21T06:56:05;22.30;;;17.33;;
75737;SDS011;64356;45.638;13.764;2023-02-21T06:58:31;21.60;;;17.35;;
75737;SDS011;64356;45.638;13.764;2023-02-21T07:00:56;27.05;;;18.63;;
75737;SDS011;64356;45.638;13.764;2023-02-21T07:03:22;28.05;;;16.83;;
75737;SDS011;64356;45.638;13.764;2023-02-21T07:05:48;23.83;;;17.23;;
75737;SDS011;64356;45.638;13.764;2023-02-21T07:08:13;22.10;;;17.65;;
75737;SDS011;64356;45.638;13.764;2023-02-21T07:10:39;25.50;;;16.65;;
75737;SDS011;64356;45.638;13.764;2023-02-21T07:13:05;33.03;;;18.27;;
75737;SDS011;64356;45.638;13.764;2023-02-21T07:15:30;25.30;;;18.70;;
75737;SDS011;64356;45.638;13.764;2023-02-21T07:17:56;24.83;;;18.38;;
75737;SDS011;64356;45.638;13.764;2023-02-21T07:20:22;21.88;;;16.30;;
75737;SDS011;64356;45.638;13.764;2023-02-21T07:22:48;21.05;;;17.38;;
75737;SDS011;64356;45.638;13.764;2023-02-21T07:25:14;24.15;;;17.08;;
75737;SDS011;64356;45.638;13.764;2023-02-21T07:27:41;26.10;;;17.15;;
75737;SDS011;64356;45.638;13.764;2023-02-21T07:30:07;27.85;;;17.70;;
75737;SDS011;64356;45.638;13.764;2023-02-21T07:32:34;29.48;;;18.05;;
75737;SDS011;64356;45.638;13.764;2023-02-21T07:35:00;23.65;;;16.98;;
75737;SDS011;64356;45.638;13.764;2023-02-21T07:37:25;23.20;;;17.33;;
75737;SDS011;64356;45.638;13.764;2023-02-21T07:39:51;26.77;;;17.55;;
75737;SDS011;64356;45.638;13.764;2023-02-21T07:42:17;24.48;;;17.98;;
75737;SDS011;64356;45.638;13.764;2023-02-21T07:44:43;22.08;;;16.15;;
75737;SDS011;64356;45.638;13.764;2023-02-21T07:47:08;23.02;;;16.75;;
75737;SDS011;64356;45.638;13.764;2023-02-21T07:49:37;28.65;;;17.55;;
75737;SDS011;64356;45.638;13.764;2023-02-21T07:52:04;28.77;;;17.75;;
75737;SDS011;64356;45.638;13.764;2023-02-21T07:54:29;22.75;;;17.08;;
75737;SDS011;64356;45.638;13.764;2023-02-21T07:56:55;22.95;;;16.73;;
75737;SDS011;64356;45.638;13.764;2023-02-21T07:59:21;23.92;;;17.52;;
75737;SDS011;64356;45.638;13.764;2023-02-21T08:01:47;22.10;;;16.90;;
75737;SDS011;64356;45.638;13.764;2023-02-21T08:04:13;23.77;;;17.50;;
75737;SDS011;64356;45.638;13.764;2023-02-21T08:06:39;26.23;;;16.88;;
75737;SDS011;64356;45.638;13.764;2023-02-21T08:09:05;29.60;;;17.52;;
75737;SDS011;64356;45.638;13.764;2023-02-21T08:11:31;23.58;;;17.63;;
75737;SDS011;64356;45.638;13.764;2023-02-21T08:13:58;21.33;;;16.50;;
75737;SDS011;64356;45.638;13.764;2023-02-21T08:16:23;26.17;;;17.92;;
75737;SDS011;64356;45.638;13.764;2023-02-21T08:18:49;35.92;;;18.00;;
75737;SDS011;64356;45.638;13.764;2023-02-21T08:21:15;21.67;;;16.92;;
75737;SDS011;64356;45.638;13.764;2023-02-21T08:23:41;27.30;;;17.83;;
75737;SDS011;64356;45.638;13.764;2023-02-21T08:26:07;23.73;;;16.02;;
75737;SDS011;64356;45.638;13.764;2023-02-21T08:28:33;23.40;;;16.50;;
75737;SDS011;64356;45.638;13.764;2023-02-21T08:31:01;21.42;;;17.60;;
75737;SDS011;64356;45.638;13.764;2023-02-21T08:33:27;23.77;;;17.38;;
75737;SDS011;64356;45.638;13.764;2023-02-21T08:35:53;24.27;;;17.80;;
75737;SDS011;64356;45.638;13.764;2023-02-21T08:38:18;22.88;;;16.60;;
75737;SDS011;64356;45.638;13.764;2023-02-21T08:40:44;24.60;;;17.17;;
75737;SDS011;64356;45.638;13.764;2023-02-21T08:43:10;24.40;;;18.50;;
75737;SDS011;64356;45.638;13.764;2023-02-21T08:45:36;22.58;;;16.63;;
75737;SDS011;64356;45.638;13.764;2023-02-21T08:48:02;24.63;;;17.77;;
75737;SDS011;64356;45.638;13.764;2023-02-21T08:50:28;26.77;;;18.50;;
75737;SDS011;64356;45.638;13.764;2023-02-21T08:52:54;23.55;;;17.58;;
75737;SDS011;64356;45.638;13.764;2023-02-21T08:55:21;22.88;;;16.73;;
75737;SDS011;64356;45.638;13.764;2023-02-21T08:57:47;22.95;;;16.85;;
75737;SDS011;64356;45.638;13.764;2023-02-21T09:00:16;23.77;;;17.50;;
75737;SDS011;64356;45.638;13.764;2023-02-21T09:02:43;29.05;;;17.38;;
75737;SDS011;64356;45.638;13.764;2023-02-21T09:05:16;22.20;;;17.63;;
75737;SDS011;64356;45.638;13.764;2023-02-21T09:07:46;27.83;;;18.70;;
75737;SDS011;64356;45.638;13.764;2023-02-21T09:10:12;23.33;;;17.35;;
75737;SDS011;64356;45.638;13.764;2023-02-21T09:12:38;28.02;;;17.73;;
75737;SDS011;64356;45.638;13.764;2023-02-21T09:15:04;25.90;;;17.05;;
75737;SDS011;64356;45.638;13.764;2023-02-21T09:17:31;25.15;;;17.83;;
75737;SDS011;64356;45.638;13.764;2023-02-21T09:20:00;24.08;;;18.33;;
75737;SDS011;64356;45.638;13.764;2023-02-21T09:24:56;25.67;;;18.02;;
75737;SDS011;64356;45.638;13.764;2023-02-21T09:27:23;22.80;;;17.90;;
75737;SDS011;64356;45.638;13.764;2023-02-21T09:30:02;23.70;;;18.08;;
75737;SDS011;64356;45.638;13.764;2023-02-21T09:32:32;25.23;;;17.45;;
75737;SDS011;64356;45.638;13.764;2023-02-21T09:34:59;23.33;;;17.00;;
75737;SDS011;64356;45.638;13.764;2023-02-21T09:37:25;25.40;;;18.83;;
75737;SDS011;64356;45.638;13.764;2023-02-21T09:39:51;24.23;;;16.90;;
75737;SDS011;64356;45.638;13.764;2023-02-21T09:42:17;23.42;;;17.27;;
75737;SDS011;64356;45.638;13.764;2023-02-21T09:44:45;25.23;;;18.08;;
75737;SDS011;64356;45.638;13.764;2023-02-21T09:47:18;29.38;;;18.75;;
75737;SDS011;64356;45.638;13.764;2023-02-21T09:49:56;24.58;;;18.33;;
75737;SDS011;64356;45.638;13.764;2023-02-21T09:52:28;27.20;;;19.25;;
75737;SDS011;64356;45.638;13.764;2023-02-21T09:54:57;26.38;;;17.73;;
75737;SDS011;64356;45.638;13.764;2023-02-21T09:57:24;28.73;;;19.05;;
75737;SDS011;64356;45.638;13.764;2023-02-21T09:59:50;25.83;;;18.60;;
75737;SDS011;64356;45.638;13.764;2023-02-21T10:02:50;24.17;;;18.38;;
75737;SDS011;64356;45.638;13.764;2023-02-21T10:13:42;27.25;;;18.63;;
75737;SDS011;64356;45.638;13.764;2023-02-21T10:16:25;23.70;;;18.23;;
75737;SDS011;64356;45.638;13.764;2023-02-21T10:21:45;28.10;;;19.77;;
75737;SDS011;64356;45.638;13.764;2023-02-21T10:24:18;24.67;;;17.60;;
75737;SDS011;64356;45.638;13.764;2023-02-21T10:26:47;26.00;;;17.77;;
75737;SDS011;64356;45.638;13.764;2023-02-21T10:29:24;28.73;;;19.58;;
75737;SDS011;64356;45.638;13.764;2023-02-21T10:32:00;25.60;;;19.50;;
75737;SDS011;64356;45.638;13.764;2023-02-21T10:34:28;28.48;;;17.90;;
75737;SDS011;64356;45.638;13.764;2023-02-21T10:36:57;25.45;;;19.73;;
75737;SDS011;64356;45.638;13.764;2023-02-21T10:39:32;23.70;;;19.25;;
75737;SDS011;64356;45.638;13.764;2023-02-21T10:42:03;24.50;;;19.65;;
75737;SDS011;64356;45.638;13.764;2023-02-21T10:44:29;26.20;;;19.10;;
75737;SDS011;64356;45.638;13.764;2023-02-21T10:47:00;25.87;;;18.33;;
75737;SDS011;64356;45.638;13.764;2023-02-21T10:52:15;39.92;;;18.85;;
75737;SDS011;64356;45.638;13.764;2023-02-21T10:57:29;25.98;;;19.15;;
75737;SDS011;64356;45.638;13.764;2023-02-21T10:59:56;23.80;;;18.23;;
75737;SDS011;64356;45.638;13.764;2023-02-21T11:02:25;27.98;;;18.30;;
75737;SDS011;64356;45.638;13.764;2023-02-21T11:07:20;23.48;;;18.92;;
75737;SDS011;64356;45.638;13.764;2023-02-21T11:09:48;24.35;;;18.25;;
75737;SDS011;64356;45.638;13.764;2023-02-21T11:14:41;26.75;;;18.58;;
75737;SDS011;64356;45.638;13.764;2023-02-21T11:17:11;23.83;;;17.50;;
75737;SDS011;64356;45.638;13.764;2023-02-21T11:22:11;27.20;;;18.25;;
75737;SDS011;64356;45.638;13.764;2023-02-21T11:27:21;27.30;;;18.30;;
75737;SDS011;64356;45.638;13.764;2023-02-21T11:29:48;25.45;;;18.63;;
75737;SDS011;64356;45.638;13.764;2023-02-21T11:32:20;23.70;;;17.65;;
75737;SDS011;64356;45.638;13.764;2023-02-21T11:34:49;23.13;;;17.95;;
75737;SDS011;64356;45.638;13.764;2023-02-21T11:37:16;24.58;;;18.48;;
75737;SDS011;64356;45.638;13.764;2023-02-21T11:39:41;24.35;;;18.80;;
75737;SDS011;64356;45.638;13.764;2023-02-21T11:42:23;21.27;;;17.38;;
75737;SDS011;64356;45.638;13.764;2023-02-21T11:45:05;26.23;;;17.75;;
75737;SDS011;64356;45.638;13.764;2023-02-21T11:47:36;22.52;;;17.50;;
75737;SDS011;64356;45.638;13.764;2023-02-21T11:55:02;21.55;;;17.35;;
75737;SDS011;64356;45.638;13.764;2023-02-21T12:13:32;24.27;;;18.00;;
75737;SDS011;64356;45.638;13.764;2023-02-21T12:23:58;23.50;;;16.58;;
75737;SDS011;64356;45.638;13.764;2023-02-21T12:26:49;21.65;;;17.23;;
75737;SDS011;64356;45.638;13.764;2023-02-21T12:37:34;24.30;;;17.60;;
75737;SDS011;64356;45.638;13.764;2023-02-21T12:51:56;23.77;;;17.17;;
75737;SDS011;64356;45.638;13.764;2023-02-21T12:54:45;22.77;;;17.25;;
75737;SDS011;64356;45.638;13.764;2023-02-21T12:57:26;23.92;;;17.73;;
75737;SDS011;64356;45.638;13.764;2023-02-21T13:05:49;22.63;;;18.52;;
75737;SDS011;64356;45.638;13.764;2023-02-21T13:09:11;25.27;;;17.33;;
75737;SDS011;64356;45.638;13.764;2023-02-21T13:14:19;24.00;;;18.15;;
75737;SDS011;64356;45.638;13.764;2023-02-21T13:16:52;22.92;;;17.58;;
75737;SDS011;64356;45.638;13.764;2023-02-21T13:19:18;22.23;;;16.70;;
75737;SDS011;64356;45.638;13.764;2023-02-21T13:24:30;26.45;;;18.88;;
75737;SDS011;64356;45.638;13.764;2023-02-21T13:30:34;21.38;;;16.95;;
75737;SDS011;64356;45.638;13.764;2023-02-21T13:33:04;23.27;;;17.67;;
75737;SDS011;64356;45.638;13.764;2023-02-21T13:35:37;26.88;;;19.65;;
75737;SDS011;64356;45.638;13.764;2023-02-21T13:38:04;26.02;;;18.90;;
75737;SDS011;64356;45.638;13.764;2023-02-21T13:40:44;22.80;;;17.48;;
75737;SDS011;64356;45.638;13.764;2023-02-21T13:43:23;23.60;;;17.55;;
75737;SDS011;64356;45.638;13.764;2023-02-21T13:45:53;25.92;;;17.67;;
75737;SDS011;64356;45.638;13.764;2023-02-21T13:48:23;27.60;;;20.60;;
75737;SDS011;64356;45.638;13.764;2023-02-21T13:50:52;33.55;;;22.98;;
75737;SDS011;64356;45.638;13.764;2023-02-21T13:53:20;32.42;;;23.38;;
75737;SDS011;64356;45.638;13.764;2023-02-21T14:07:06;23.50;;;17.80;;
75737;SDS011;64356;45.638;13.764;2023-02-21T14:09:33;22.95;;;17.67;;
75737;SDS011;64356;45.638;13.764;2023-02-21T14:12:03;22.93;;;17.50;;
75737;SDS011;64356;45.638;13.764;2023-02-21T14:14:30;24.15;;;19.00;;
75737;SDS011;64356;45.638;13.764;2023-02-21T14:17:04;20.60;;;17.40;;
75737;SDS011;64356;45.638;13.764;2023-02-21T14:19:40;22.80;;;18.27;;
75737;SDS011;64356;45.638;13.764;2023-02-21T14:24:36;25.02;;;17.48;;
75737;SDS011;64356;45.638;13.764;2023-02-21T14:39:50;24.05;;;17.60;;
75737;SDS011;64356;45.638;13.764;2023-02-21T14:52:49;21.27;;;17.27;;
75737;SDS011;64356;45.638;13.764;2023-02-21T14:55:33;25.00;;;17.25;;
75737;SDS011;64356;45.638;13.764;2023-02-21T14:58:58;23.23;;;17.75;;
75737;SDS011;64356;45.638;13.764;2023-02-21T15:01:13;20.02;;;16.25;;
75737;SDS011;64356;45.638;13.764;2023-02-21T15:03:45;19.58;;;16.92;;
75737;SDS011;64356;45.638;13.764;2023-02-21T15:06:25;22.17;;;18.13;;
75737;SDS011;64356;45.638;13.764;2023-02-21T15:08:53;23.38;;;17.45;;
75737;SDS011;64356;45.638;13.764;2023-02-21T15:16:42;21.58;;;17.23;;
75737;SDS011;64356;45.638;13.764;2023-02-21T15:22:14;22.80;;;17.90;;
75737;SDS011;64356;45.638;13.764;2023-02-21T15:30:15;20.83;;;16.73;;
75737;SDS011;64356;45.638;13.764;2023-02-21T15:33:31;21.30;;;16.70;;
75737;SDS011;64356;45.638;13.764;2023-02-21T15:35:39;18.83;;;16.60;;
75737;SDS011;64356;45.638;13.764;2023-02-21T15:38:16;21.77;;;17.25;;
75737;SDS011;64356;45.638;13.764;2023-02-21T15:40:56;21.00;;;17.73;;
75737;SDS011;64356;45.638;13.764;2023-02-21T15:43:33;20.48;;;16.67;;
75737;SDS011;64356;45.638;13.764;2023-02-21T15:46:01;19.40;;;16.40;;
75737;SDS011;64356;45.638;13.764;2023-02-21T15:48:30;22.92;;;17.65;;
75737;SDS011;64356;45.638;13.764;2023-02-21T15:50:59;22.45;;;16.90;;
75737;SDS011;64356;45.638;13.764;2023-02-21T15:53:28;21.70;;;16.80;;
75737;SDS011;64356;45.638;13.764;2023-02-21T15:55:53;21.88;;;18.10;;
75737;SDS011;64356;45.638;13.764;2023-02-21T15:59:08;21.45;;;17.15;;
75737;SDS011;64356;45.638;13.764;2023-02-21T16:01:34;21.17;;;16.65;;
75737;SDS011;64356;45.638;13.764;2023-02-21T16:04:13;20.92;;;16.45;;
75737;SDS011;64356;45.638;13.764;2023-02-21T16:06:45;21.15;;;16.58;;
75737;SDS011;64356;45.638;13.764;2023-02-21T16:09:20;21.58;;;15.68;;
75737;SDS011;64356;45.638;13.764;2023-02-21T16:19:41;25.40;;;17.88;;
75737;SDS011;64356;45.638;13.764;2023-02-21T16:22:10;20.88;;;16.30;;
75737;SDS011;64356;45.638;13.764;2023-02-21T16:24:38;20.52;;;16.40;;
75737;SDS011;64356;45.638;13.764;2023-02-21T16:27:07;19.80;;;16.77;;
75737;SDS011;64356;45.638;13.764;2023-02-21T16:29:35;20.85;;;15.48;;
75737;SDS011;64356;45.638;13.764;2023-02-21T16:32:01;20.83;;;16.25;;
75737;SDS011;64356;45.638;13.764;2023-02-21T16:34:29;21.92;;;17.02;;
75737;SDS011;64356;45.638;13.764;2023-02-21T16:37:00;19.23;;;15.75;;
75737;SDS011;64356;45.638;13.764;2023-02-21T16:39:31;23.88;;;17.42;;
75737;SDS011;64356;45.638;13.764;2023-02-21T16:41:57;18.95;;;15.45;;
75737;SDS011;64356;45.638;13.764;2023-02-21T16:44:23;20.77;;;16.90;;
75737;SDS011;64356;45.638;13.764;2023-02-21T16:46:51;21.20;;;16.80;;
75737;SDS011;64356;45.638;13.764;2023-02-21T16:49:17;19.63;;;15.80;;
75737;SDS011;64356;45.638;13.764;2023-02-21T16:51:43;21.33;;;16.00;;
75737;SDS011;64356;45.638;13.764;2023-02-21T16:54:09;20.15;;;16.52;;
75737;SDS011;64356;45.638;13.764;2023-02-21T16:56:37;20.30;;;15.77;;
75737;SDS011;64356;45.638;13.764;2023-02-21T16:59:07;22.63;;;16.40;;
75737;SDS011;64356;45.638;13.764;2023-02-21T17:01:34;19.45;;;15.38;;
75737;SDS011;64356;45.638;13.764;2023-02-21T17:04:03;20.73;;;16.55;;
75737;SDS011;64356;45.638;13.764;2023-02-21T17:06:31;21.30;;;16.13;;
75737;SDS011;64356;45.638;13.764;2023-02-21T17:08:58;21.42;;;16.60;;
75737;SDS011;64356;45.638;13.764;2023-02-21T17:11:24;20.35;;;16.60;;
75737;SDS011;64356;45.638;13.764;2023-02-21T17:13:50;23.60;;;15.85;;
75737;SDS011;64356;45.638;13.764;2023-02-21T17:16:16;18.23;;;15.52;;
75737;SDS011;64356;45.638;13.764;2023-02-21T17:18:43;19.83;;;16.88;;
75737;SDS011;64356;45.638;13.764;2023-02-21T17:21:09;19.55;;;16.02;;
75737;SDS011;64356;45.638;13.764;2023-02-21T17:23:35;21.10;;;16.80;;
75737;SDS011;64356;45.638;13.764;2023-02-21T17:26:01;19.70;;;15.95;;
75737;SDS011;64356;45.638;13.764;2023-02-21T17:28:27;20.65;;;15.98;;
75737;SDS011;64356;45.638;13.764;2023-02-21T17:30:53;20.88;;;16.00;;
75737;SDS011;64356;45.638;13.764;2023-02-21T17:33:19;20.00;;;15.63;;
75737;SDS011;64356;45.638;13.764;2023-02-21T17:35:45;18.13;;;15.60;;
75737;SDS011;64356;45.638;13.764;2023-02-21T17:38:11;18.60;;;15.02;;
75737;SDS011;64356;45.638;13.764;2023-02-21T17:40:36;19.58;;;16.27;;
75737;SDS011;64356;45.638;13.764;2023-02-21T17:43:02;22.98;;;16.50;;